Tiempo atmosférico en la estación meteorológica de Almonte, Huelva (5 m.)



Fecha
DESCASC
Temp. máxima en grados centígrados (hora)
DESCASC
Temp. mínima en grados centígrados (hora)
DESCASC
Temp. media en grados centígrados
DESCASC
Racha de viento máxima en m/sg (hora)
DESCASC
Velocidad máxima media en intervalos de 10 minutos(hora)
DESCASC
Precipitaciones diarias en mm
DESCASC
Precipitaciones de 00:00 a 06:00 en mm
DESCASC
Precipitaciones de 06:00 a 12:00 en mm
DESCASC
Precipitaciones de 12:00 a 18:00 en mm
DESCASC
Precipitaciones de 18:00 a 24:00 en mm
DESCASC
29-10-2020 27.6 (16:10) 10.3 (06:50) 19 8.33 (10:40) 5.28 (11:00) 0 0 0 0 0
28-10-2020 23.1 (16:50) 7.8 (06:00) 15.5 7.5 (10:30) 5 (10:30) 0 0 0 0 0
27-10-2020 20.9 (15:50) 5.8 (00:00) 13.3 5.83 (14:00) 4.17 (16:30) 0 0 0 0 0
26-10-2020 19.7 (16:00) 10.7 (00:00) 15.2 8.89 (13:30) 4.72 (13:30) 0 0 0 0 0
25-10-2020 22.3 (14:10) 7 (00:00) 14.6 11.94 (19:50) 7.5 (16:40) 3.2 0 0 0 3.2
24-10-2020 23.4 (15:00) 8.9 (00:00) 16.1 6.67 (16:00) 4.44 (17:00) 0 0 0 0 0
23-10-2020 22.8 (14:40) 8.6 (00:00) 15.7 6.67 (14:50) 4.72 (16:30) 0 0 0 0 0
22-10-2020 22.9 (15:40) 13.4 (00:00) 18.1 8.33 (13:20) 5.83 (13:20) 7 1.6 5.2 0.2 0
21-10-2020 24 (15:20) 17.2 (00:00) 20.6 10.56 (17:40) 6.67 (17:40) 0.6 0 0.4 0 0.2
20-10-2020 26.1 (13:50) 17.3 (00:00) 21.7 20.28 (21:00) 11.67 (21:00) 12 0 0 0.6 11.4
19-10-2020 29.4 (15:20) 9 (00:00) 19.2 12.22 (20:20) 7.78 (20:20) 0 0 0 0 0
18-10-2020 28.7 (15:50) 5.5 (00:00) 17.1 9.17 (16:00) 5 (16:20) 0 0 0 0 0
17-10-2020 23.4 (14:20) 3.2 (00:00) 13.3 7.5 (14:30) 5.28 (16:50) 0 0 0 0 0
16-10-2020 25.1 (15:40) 6 (00:00) 15.6 7.22 (15:20) 5.28 (15:20) 0 0 0 0 0
15-10-2020 23.3 (14:20) 3.6 (00:00) 13.4 8.33 (15:50) 6.11 (17:40) 0 0 0 0 0
14-10-2020 22.8 (15:00) 11 (00:00) 16.9 11.39 (16:20) 8.33 (16:20) 0 0 0 0 0
13-10-2020 26.3 (14:50) 6.9 (00:00) 16.6 7.78 (16:40) 6.11 (16:20) 0 0 0 0 0
12-10-2020 26.5 (16:20) 11.5 (00:00) 19 14.17 (12:40) 8.89 (11:20) 0 0 0 0 0
11-10-2020 27.5 (15:30) 13.3 (00:00) 20.4 7.5 (15:40) 5.56 (15:40) 0 0 0 0 0
10-10-2020 27.6 (14:40) 12.2 (00:00) 19.9 7.5 (16:50) 5.83 (16:50) 0 0 0 0 0
09-10-2020 29 (14:10) 12.2 (00:00) 20.6 5.83 (15:40) 4.72 (15:40) 0 0 0 0 0
08-10-2020 33.8 (15:30) 13.7 (00:00) 23.7 7.78 (16:20) 6.11 (16:20) 0 0 0 0 0
07-10-2020 33.8 (16:20) 10.9 (00:00) 22.3 9.17 (12:40) 5.56 (12:10) 0 0 0 0 0
06-10-2020 28.9 (16:20) 9.6 (00:00) 19.3 8.33 (14:00) 5 (16:50) 0 0 0 0 0
05-10-2020 25.6 (16:10) 9.5 (00:00) 17.6 8.89 (16:10) 6.39 (16:20) 0 0 0 0 0
04-10-2020 22.2 (14:50) 8.2 (00:00) 15.2 10.83 (16:50) 7.5 (17:00) 0 0 0 0 0
03-10-2020 23.1 (14:40) 6.9 (00:00) 15 10.83 (17:40) 7.5 (17:50) 0 0 0 0 0
02-10-2020 24.2 (15:20) 14.3 (00:00) 19.3 18.89 (14:30) 12.5 (14:50) 0 0 0 0 0
01-10-2020 28.2 (15:00) 12.1 (00:00) 20.2 12.5 (18:00) 9.17 (18:00) 0 0 0 0 0

Gráficas

Temp. máximas Temp. mínimas Temp. medias Precipitaciones Rachas de viento máximas Velocidades máximas media en intervalos de 10 minutos

Datos horarios

Fecha y hora oficial Temperatura (ºC) Velocidad del viento (km/h) Dirección del viento Racha (km/h) Dirección de racha Precipitación (mm) Presión (hPa) Tendencia (hPa) Humedad (%)
2020-10-30 23:00:00 13.7 3 Noroeste 10 Noroeste 0 -- -- 65
2020-10-30 22:00:00 16.2 8 Noroeste 12 Noroeste 0 -- -- 56
2020-10-30 21:00:00 15.4 4 Noroeste 6 Oeste 0 -- -- 65
2020-10-30 20:00:00 17.6 5 Oeste 8 Oeste 0 -- -- 59
2020-10-30 19:00:00 20.5 4 Oeste 9 Sudoeste 0 -- -- 53
2020-10-30 18:00:00 25.9 5 Sudoeste 9 Norte 0 -- -- 40
2020-10-30 17:00:00 26.3 4 Norte 12 Noroeste 0 -- -- 39
2020-10-30 16:00:00 25.8 4 Norte 10 Noroeste 0 -- -- 40
2020-10-30 15:00:00 25.8 5 Nordeste 18 Nordeste 0 -- -- 36
2020-10-30 14:00:00 25.8 5 Nordeste 16 Norte 0 -- -- 37
2020-10-30 13:00:00 25 4 Sudeste 12 Nordeste 0 -- -- 38
2020-10-30 12:00:00 22.8 4 Este 15 Nordeste 0 -- -- 46
2020-10-30 11:00:00 20.4 9 Nordeste 17 Nordeste 0 -- -- 58
2020-10-30 10:00:00 16.2 10 Nordeste 17 Nordeste 0 -- -- 76
2020-10-30 09:00:00 11.5 5 Nordeste 10 Nordeste 0 -- -- 95
2020-10-30 08:00:00 7.9 0 Calma 7 Nordeste 0 -- -- 90
2020-10-30 07:00:00 10.1 5 Nordeste 13 Norte 0 -- -- 88
2020-10-30 06:00:00 10.5 4 Nordeste 10 Nordeste 0 -- -- 89
2020-10-30 05:00:00 11.3 6 Nordeste 12 Norte 0 -- -- 88
2020-10-30 04:00:00 10.9 4 Nordeste 10 Norte 0 -- -- 93
2020-10-30 03:00:00 9.8 3 Norte 5 Norte 0 -- -- 89
2020-10-30 02:00:00 11.1 3 Norte 10 Noroeste 0 -- -- 85
2020-10-30 01:00:00 14 5 Noroeste 13 Noroeste 0 -- -- 78
2020-10-30 00:00:00 14.6 7 Noroeste 10 Noroeste 0 -- -- 79
2020-10-29 23:00:00 14.1 6 Oeste 10 Oeste 0 -- -- 86
2020-10-29 22:00:00 15.3 5 Oeste 9 Oeste 0 -- -- 90
2020-10-29 21:00:00 15.5 8 Sudoeste 10 Sudoeste 0 -- -- 88
2020-10-29 20:00:00 17.3 10 Sudoeste 15 Sur 0 -- -- 73
2020-10-29 19:00:00 20.4 7 Oeste 10 Sudoeste 0 -- -- 61
2020-10-29 18:00:00 24.5 8 Sudoeste 14 Oeste 0 -- -- 52
2020-10-29 17:00:00 27.1 5 Norte 13 Este 0 -- -- 33
2020-10-29 16:00:00 27.1 4 Nordeste 13 Nordeste 0 -- -- 33
2020-10-29 15:00:00 26.8 4 Este 20 Nordeste 0 -- -- 35
2020-10-29 14:00:00 25.2 10 Nordeste 24 Nordeste 0 -- -- 44
2020-10-29 13:00:00 23.6 15 Nordeste 30 Nordeste 0 -- -- 48
2020-10-29 12:00:00 21.4 16 Nordeste 29 Nordeste 0 -- -- 61
2020-10-29 11:00:00 19.5 19 Nordeste 30 Nordeste 0 -- -- 69
2020-10-29 10:00:00 16.9 16 Nordeste 23 Nordeste 0 -- -- 83
2020-10-29 09:00:00 13.7 9 Nordeste 15 Nordeste 0 -- -- 98
2020-10-29 08:00:00 11.6 4 Nordeste 12 Nordeste 0 -- -- 97
2020-10-29 07:00:00 10.4 10 Nordeste 18 Norte 0 -- -- 97
2020-10-29 06:00:00 10.5 10 Nordeste 17 Norte 0 -- -- 95
2020-10-29 05:00:00 11 12 Nordeste 17 Norte 0 -- -- 94
2020-10-29 04:00:00 10.7 9 Nordeste 14 Norte 0 -- -- 93
2020-10-29 03:00:00 12.1 11 Nordeste 18 Norte 0 -- -- 91
2020-10-29 02:00:00 12.5 7 Nordeste 16 Norte 0 -- -- 90
2020-10-29 01:00:00 12.1 3 Norte 9 Norte 0 -- -- 91
2020-10-29 00:00:00 13.2 0 Calma 11 Norte 0 -- -- 83
2020-10-28 23:00:00 14.8 5 Norte 10 Noroeste 0 -- -- 88
2020-10-28 22:00:00 15.2 9 Noroeste 13 Noroeste 0 -- -- 86
2020-10-28 21:00:00 15.7 8 Noroeste 12 Noroeste 0 -- -- 82
2020-10-28 20:00:00 16.9 7 Noroeste 10 Noroeste 0 -- -- 76
2020-10-28 19:00:00 19.4 5 Oeste 8 Sudoeste 0 -- -- 67
2020-10-28 18:00:00 22 5 Nordeste 14 Este 0 -- -- 54
2020-10-28 17:00:00 23 8 Nordeste 14 Nordeste 0 -- -- 50
2020-10-28 16:00:00 22.5 5 Norte 20 Nordeste 0 -- -- 51
2020-10-28 15:00:00 22.7 8 Norte 26 Nordeste 0 -- -- 49
2020-10-28 14:00:00 21.1 11 Norte 27 Nordeste 0 -- -- 55
2020-10-28 13:00:00 20.4 13 Nordeste 27 Nordeste 0 -- -- 56
2020-10-28 12:00:00 19 17 Nordeste 27 Nordeste 0 -- -- 60
2020-10-28 11:00:00 17.2 13 Nordeste 27 Nordeste 0 -- -- 65
2020-10-28 10:00:00 15.9 12 Nordeste 22 Nordeste 0 -- -- 72
2020-10-28 09:00:00 11.4 6 Norte 14 Nordeste 0 -- -- 89
2020-10-28 08:00:00 9.8 7 Norte 17 Norte 0 -- -- 91
2020-10-28 07:00:00 9.1 4 Norte 11 Nordeste 0 -- -- 94
2020-10-28 06:00:00 7.8 6 Nordeste 10 Norte 0 -- -- 91
2020-10-28 05:00:00 8.7 3 Norte 7 Norte 0 -- -- 90
2020-10-28 04:00:00 9.8 3 Norte 9 Noroeste 0 -- -- 89
2020-10-28 03:00:00 8.6 4 Norte 8 Norte 0 -- -- 92
2020-10-28 02:00:00 9.7 0 Calma 9 Noroeste 0 -- -- 86
2020-10-28 01:00:00 11 4 Noroeste 8 Noroeste 0 -- -- 86
2020-10-28 00:00:00 11.4 5 Noroeste 8 Noroeste 0 -- -- 86
2020-10-27 23:00:00 12.1 5 Oeste 11 Oeste 0 -- -- 86
2020-10-27 22:00:00 12.7 6 Oeste 13 Oeste 0 -- -- 84
2020-10-27 21:00:00 12.7 6 Oeste 12 Oeste 0 -- -- 80
2020-10-27 20:00:00 14.4 7 Oeste 14 Oeste 0 -- -- 73
2020-10-27 19:00:00 15.4 8 Oeste 16 Oeste 0 -- -- 67
2020-10-27 18:00:00 19 9 Oeste 19 Sudoeste 0 -- -- 52
2020-10-27 17:00:00 20.1 14 Sudoeste 21 Sudoeste 0 -- -- 48
2020-10-27 16:00:00 20.9 14 Sudoeste 20 Oeste 0 -- -- 47
2020-10-27 15:00:00 18.6 12 Oeste 21 Oeste 0 -- -- 55
2020-10-27 14:00:00 19.7 14 Oeste 21 Sudoeste 0 -- -- 51
2020-10-27 13:00:00 19.1 4 Norte 18 Nordeste 0 -- -- 46
2020-10-27 12:00:00 18.1 6 Nordeste 13 Este 0 -- -- 54
2020-10-27 11:00:00 15.7 7 Nordeste 13 Nordeste 0 -- -- 63
2020-10-27 10:00:00 12.5 7 Nordeste 10 Nordeste 0 -- -- 80
2020-10-27 09:00:00 8.6 4 Nordeste 7 Norte 0 -- -- 92
2020-10-27 08:00:00 7 4 Norte 9 Nordeste 0 -- -- 93
2020-10-27 07:00:00 6.5 2 Norte 7 Norte 0 -- -- 93
2020-10-27 06:00:00 6.5 5 Norte 8 Norte 0 -- -- 95
2020-10-27 05:00:00 5.9 0 Calma 10 Nordeste 0 -- -- 92
2020-10-27 04:00:00 6.3 4 Nordeste 6 Nordeste 0 -- -- 92
2020-10-27 03:00:00 6.7 3 Norte 7 Nordeste 0 -- -- 89
2020-10-27 02:00:00 7.8 3 Nordeste 12 Norte 0 -- -- 82
2020-10-27 01:00:00 10 6 Noroeste 9 Noroeste 0 -- -- 78
2020-10-27 00:00:00 10.9 7 Noroeste 11 Noroeste 0 -- -- 73
2020-10-26 23:00:00 11.5 5 Noroeste 12 Oeste 0 -- -- 70
2020-10-26 22:00:00 12.3 7 Noroeste 14 Noroeste 0 -- -- 66
2020-10-26 21:00:00 13 8 Noroeste 13 Noroeste 0 -- -- 63
2020-10-26 20:00:00 14.5 5 Oeste 14 Noroeste 0 -- -- 58
2020-10-26 19:00:00 15.9 5 Oeste 14 Noroeste 0 -- -- 57
2020-10-26 18:00:00 18.9 9 Noroeste 23 Noroeste 0 -- -- 45
2020-10-26 17:00:00 19.6 12 Noroeste 29 Oeste 0 -- -- 43
2020-10-26 16:00:00 19.7 8 Norte 30 Noroeste 0 -- -- 46
2020-10-26 15:00:00 19.5 13 Noroeste 28 Oeste 0 -- -- 45
2020-10-26 14:00:00 19.1 15 Noroeste 32 Noroeste 0 -- -- 47
2020-10-26 13:00:00 18.8 10 Noroeste 29 Noroeste 0 -- -- 51
2020-10-26 12:00:00 17.6 12 Noroeste 29 Norte 0 -- -- 60
2020-10-26 11:00:00 16.4 10 Norte 23 Noroeste 0 -- -- 69
2020-10-26 10:00:00 15 7 Norte 17 Noroeste 0 -- -- 81
2020-10-26 09:00:00 12.5 7 Noroeste 13 Noroeste 0 -- -- 96
2020-10-26 08:00:00 10.7 5 Noroeste 10 Noroeste 0 -- -- 95
2020-10-26 07:00:00 11.1 6 Noroeste 12 Oeste 0 -- -- 94
2020-10-26 06:00:00 11.5 5 Oeste 9 Oeste 0 -- -- 93
2020-10-26 05:00:00 12.5 6 Noroeste 13 Noroeste 0 -- -- 93
2020-10-26 04:00:00 13.5 7 Oeste 13 Oeste 0 -- -- 91
2020-10-26 03:00:00 14.6 7 Oeste 21 Oeste 0 -- -- 90
2020-10-26 02:00:00 15.5 12 Oeste 21 Oeste 0 -- -- 90
2020-10-26 01:00:00 15.7 10 Oeste 17 Oeste 0 -- -- 94
2020-10-26 00:00:00 16 10 Oeste 30 Noroeste 0.2 -- -- 93
2020-10-25 23:00:00 16.9 10 Noroeste 32 Oeste 0.8 -- -- 94
2020-10-25 22:00:00 18.3 23 Sudoeste 40 Sudoeste 0.4 -- -- 93
2020-10-25 21:00:00 18.1 23 Sudoeste 37 Sudoeste 0.8 -- -- 94
2020-10-25 20:00:00 17.9 22 Sudoeste 43 Sudoeste 1 -- -- 92
2020-10-25 19:00:00 19.1 23 Sudoeste 35 Sudoeste 0 -- -- 81
2020-10-25 18:00:00 19.8 22 Sudoeste 37 Sudoeste 0 -- -- 76
2020-10-25 17:00:00 20.7 24 Sudoeste 37 Sudoeste 0 -- -- 69
2020-10-25 16:00:00 21.1 23 Sudoeste 35 Sudoeste 0 -- -- 67
2020-10-25 15:00:00 21.1 17 Sudoeste 30 Sur 0 -- -- 68
2020-10-25 14:00:00 21.9 19 Sudoeste 27 Sur 0 -- -- 63
2020-10-25 13:00:00 19.9 15 Sudoeste 23 Sudoeste 0 -- -- 70
2020-10-25 12:00:00 20.4 14 Sudoeste 29 Oeste 0 -- -- 70
2020-10-25 11:00:00 19.2 15 Oeste 23 Oeste 0 -- -- 76
2020-10-25 10:00:00 14.3 3 Sudeste 6 Este 0 -- -- 99
2020-10-25 09:00:00 9.5 0 Calma 4 Este 0 -- -- 99
2020-10-25 08:00:00 7.6 2 Este 8 Sudoeste 0 -- -- 97
2020-10-25 07:00:00 10 3 Noroeste 10 Noroeste 0 -- -- 97
2020-10-25 06:00:00 8.4 6 Noroeste 9 Noroeste 0 -- -- 98
2020-10-25 05:00:00 7.3 3 Oeste 6 Noroeste 0 -- -- 95
2020-10-25 04:00:00 7.1 0 Calma 5 Nordeste 0 -- -- 96
2020-10-25 03:00:00 7.9 2 Nordeste 4 Este 0 -- -- 95
2020-10-25 02:00:00 8.7 0 Calma 4 Sudeste 0 -- -- 94
2020-10-25 01:00:00 12.8 5 Noroeste 10 Oeste 0 -- -- 95
2020-10-25 00:00:00 12.2 6 Oeste 8 Sudoeste 0 -- -- 95
2020-10-24 23:00:00 12.3 5 Oeste 9 Oeste 0 -- -- 93
2020-10-24 22:00:00 12.7 6 Oeste 8 Oeste 0 -- -- 89
2020-10-24 21:00:00 14.3 3 Sudoeste 10 Oeste 0 -- -- 84
2020-10-24 20:00:00 16.6 6 Oeste 16 Oeste 0 -- -- 83
2020-10-24 19:00:00 19 12 Oeste 20 Sudoeste 0 -- -- 78
2020-10-24 18:00:00 21.2 16 Sudoeste 22 Sudoeste 0 -- -- 71
2020-10-24 17:00:00 22.3 16 Sudoeste 24 Oeste 0 -- -- 64
2020-10-24 16:00:00 23 16 Sudoeste 24 Sudoeste 0 -- -- 57
2020-10-24 15:00:00 23.4 13 Sudoeste 20 Sudoeste 0 -- -- 56
2020-10-24 14:00:00 20.2 3 Este 12 Oeste 0 -- -- 77
2020-10-24 13:00:00 16.9 5 Este 12 Nordeste 0 -- -- 98
2020-10-24 12:00:00 15 4 Nordeste 11 Nordeste 0 -- -- 98
2020-10-24 11:00:00 13.4 6 Nordeste 10 Norte 0 -- -- 98
2020-10-24 10:00:00 11.4 6 Nordeste 10 Nordeste 0 -- -- 99
2020-10-24 09:00:00 10 6 Nordeste 10 Nordeste 0 -- -- 98
2020-10-24 08:00:00 9.4 6 Nordeste 10 Nordeste 0 -- -- 98
2020-10-24 07:00:00 8.9 4 Nordeste 7 Nordeste 0 -- -- 98
2020-10-24 06:00:00 10.4 4 Nordeste 6 Nordeste 0 -- -- 97
2020-10-24 05:00:00 10.9 4 Nordeste 6 Nordeste 0 -- -- 97
2020-10-24 04:00:00 10.9 4 Nordeste 5 Nordeste 0 -- -- 97
2020-10-24 03:00:00 11.2 0 Calma 5 Este 0 -- -- 95
2020-10-24 02:00:00 10.6 2 Este 8 Sudeste 0 -- -- 94
2020-10-24 01:00:00 11.6 0 Calma 6 Noroeste 0 -- -- 93
2020-10-24 00:00:00 13.7 4 Noroeste 9 Oeste 0 -- -- 94
2020-10-23 23:00:00 14 3 Oeste 5 Sudoeste 0 -- -- 94
2020-10-23 22:00:00 14.1 4 Sudoeste 6 Sudoeste 0 -- -- 91
2020-10-23 21:00:00 15.7 0 Calma 7 Sudoeste 0 -- -- 83
2020-10-23 20:00:00 17.6 8 Sudoeste 18 Sudoeste 0 -- -- 79
2020-10-23 19:00:00 20.4 13 Sudoeste 22 Sudoeste 0 -- -- 69
2020-10-23 18:00:00 21.8 17 Sudoeste 24 Oeste 0 -- -- 62
2020-10-23 17:00:00 22.5 15 Sudoeste 24 Sudoeste 0 -- -- 58
2020-10-23 16:00:00 22.6 15 Oeste 24 Sudoeste 0 -- -- 57
2020-10-23 15:00:00 22.8 14 Sudoeste 24 Sudoeste 0 -- -- 56
2020-10-23 14:00:00 22.5 11 Sudoeste 21 Sudoeste 0 -- -- 57
2020-10-23 13:00:00 21.9 8 Sur 16 Sudoeste 0 -- -- 61
2020-10-23 12:00:00 19.1 3 Este 10 Sudeste 0 -- -- 75
2020-10-23 11:00:00 15.5 2 Este 6 Sudeste 0 -- -- 98
2020-10-23 10:00:00 10.8 3 Nordeste 6 Nordeste 0 -- -- 97
2020-10-23 09:00:00 8.7 0 Calma 4 Nordeste 0 -- -- 95
2020-10-23 08:00:00 10 0 Calma 5 Norte 0 -- -- 96
2020-10-23 07:00:00 10.8 0 Calma 3 Sudeste 0 -- -- 96
2020-10-23 06:00:00 11 0 Calma 3 Nordeste 0 -- -- 95
2020-10-23 05:00:00 11.5 0 Calma 8 Norte 0 -- -- 94
2020-10-23 04:00:00 12.3 3 Norte 5 Norte 0 -- -- 96
2020-10-23 03:00:00 11.2 2 Nordeste 7 Nordeste 0 -- -- 93
2020-10-23 02:00:00 12.6 3 Oeste 5 Noroeste 0 -- -- 95
2020-10-23 01:00:00 12.8 2 Sudeste 6 Oeste 0 -- -- 93
2020-10-23 00:00:00 13.4 2 Este 5 Oeste 0 -- -- 92
2020-10-22 23:00:00 15.3 4 Oeste 7 Oeste 0 -- -- 91
2020-10-22 22:00:00 15.8 6 Oeste 10 Sudoeste 0 -- -- 91
2020-10-22 21:00:00 16.3 6 Sudoeste 7 Sudoeste 0 -- -- 88
2020-10-22 20:00:00 18 7 Sudoeste 15 Sudoeste 0 -- -- 84
2020-10-22 19:00:00 20.5 13 Sudoeste 22 Sudoeste 0 -- -- 72
2020-10-22 18:00:00 21.5 16 Sudoeste 24 Sudoeste 0 -- -- 76
2020-10-22 17:00:00 22.4 18 Sudoeste 29 Sudoeste 0 -- -- 67
2020-10-22 16:00:00 22.7 19 Sudoeste 26 Sur 0 -- -- 66
2020-10-22 15:00:00 22.8 18 Sur 27 Sur 0 -- -- 72
2020-10-22 14:00:00 21.4 20 Sudoeste 30 Sur 0 -- -- 79
2020-10-22 13:00:00 20.2 19 Sur 27 Sur 0.2 -- -- 90
2020-10-22 12:00:00 19.3 13 Sur 21 Sudoeste 0.4 -- -- 93
2020-10-22 11:00:00 19 4 Sur 13 Sur 0 -- -- 97
2020-10-22 10:00:00 16.5 2 Sudeste 11 Sudeste 0 -- -- 97
2020-10-22 09:00:00 16.2 5 Sudeste 12 Sur 0 -- -- 96
2020-10-22 08:00:00 16.5 4 Sudeste 17 Sudeste 0 -- -- 96
2020-10-22 07:00:00 16.4 2 Sudeste 16 Sur 4.8 -- -- 96
2020-10-22 06:00:00 16.6 11 Sur 17 Sur 0.2 -- -- 96
2020-10-22 05:00:00 16.8 10 Sur 19 Sur 0 -- -- 95
2020-10-22 04:00:00 17.1 10 Sur 22 Sur 0 -- -- 95
2020-10-22 03:00:00 16.9 12 Sur 23 Sur 0 -- -- 95
2020-10-22 02:00:00 16.9 3 Norte 10 Nordeste 1.2 -- -- 95
2020-10-22 01:00:00 17.1 5 Nordeste 8 Nordeste 0.2 -- -- 93
2020-10-22 00:00:00 18 4 Noroeste 28 Sudoeste 0 -- -- 89
2020-10-21 23:00:00 18.7 20 Sur 32 Sudoeste 0 -- -- 88
2020-10-21 22:00:00 17.7 9 Sur 17 Sur 0 -- -- 92
2020-10-21 21:00:00 17.4 7 Sur 18 Sur 0 -- -- 88
2020-10-21 20:00:00 18.7 12 Sur 22 Sudoeste 0 -- -- 85
2020-10-21 19:00:00 20.1 11 Sur 33 Sudoeste 0.2 -- -- 83
2020-10-21 18:00:00 23 20 Sur 38 Sur 0 -- -- 69
2020-10-21 17:00:00 23.3 22 Sur 32 Sur 0 -- -- 69
2020-10-21 16:00:00 23.3 19 Sur 30 Sur 0 -- -- 66
2020-10-21 15:00:00 23.9 21 Sudoeste 29 Sudoeste 0 -- -- 65
2020-10-21 14:00:00 22.4 18 Sudoeste 29 Sudoeste 0 -- -- 74
2020-10-21 13:00:00 22.4 21 Sudoeste 30 Sudoeste 0 -- -- 74
2020-10-21 12:00:00 19.5 9 Sudoeste 26 Sudoeste 0.4 -- -- 89
2020-10-21 11:00:00 19.8 13 Sudoeste 19 Sudoeste 0 -- -- 85
2020-10-21 10:00:00 18.1 6 Sudoeste 13 Sudoeste 0 -- -- 90
2020-10-21 09:00:00 17.7 4 Oeste 19 Sudoeste 0 -- -- 91
2020-10-21 08:00:00 17.8 12 Sudoeste 21 Sudoeste 0 -- -- 92
2020-10-21 07:00:00 17.9 12 Sudoeste 24 Sudoeste 0 -- -- 93
2020-10-21 06:00:00 18.3 22 Sudoeste 37 Sudoeste 0 -- -- 91
2020-10-21 05:00:00 17.9 15 Sur 29 Sur 0 -- -- 93
2020-10-21 04:00:00 18.6 22 Sur 31 Sudoeste 0 -- -- 90
2020-10-21 03:00:00 18.7 18 Sur 26 Sur 0 -- -- 94
2020-10-21 02:00:00 18.6 17 Sur 30 Sur 0 -- -- 92
2020-10-21 01:00:00 18.5 19 Sudoeste 33 Sudoeste 0 -- -- 93
2020-10-21 00:00:00 18.3 21 Sudoeste 33 Sudoeste 0 -- -- 93
2020-10-20 23:00:00 18.2 22 Sudoeste 37 Sudoeste 0 -- -- 95
2020-10-20 22:00:00 17.5 22 Sudoeste 53 Sudoeste 5.4 -- -- 95
2020-10-20 21:00:00 18.9 42 Sur 73 Sudoeste 3 -- -- 90
2020-10-20 20:00:00 18.8 28 Sur 46 Sudeste 2 -- -- 91
2020-10-20 19:00:00 18.9 26 Sur 53 Sur 1 -- -- 88
2020-10-20 18:00:00 20.1 35 Sur 60 Sur 0.4 -- -- 79
2020-10-20 17:00:00 21.9 28 Sur 44 Sur 0.2 -- -- 64
2020-10-20 16:00:00 23.7 30 Sur 52 Sur 0 -- -- 59
2020-10-20 15:00:00 25.1 34 Sur 59 Sur 0 -- -- 47
2020-10-20 14:00:00 26 32 Sur 55 Sur 0 -- -- 49
2020-10-20 13:00:00 24.4 34 Sur 53 Sur 0 -- -- 52
2020-10-20 12:00:00 23.6 22 Sur 41 Sur 0 -- -- 57
2020-10-20 11:00:00 22 18 Sudeste 37 Sur 0 -- -- 64
2020-10-20 10:00:00 20.9 20 Sur 40 Sur 0 -- -- 66
2020-10-20 09:00:00 20.1 21 Sur 37 Sur 0 -- -- 68
2020-10-20 08:00:00 20.3 21 Sur 33 Sudeste 0 -- -- 67
2020-10-20 07:00:00 19.9 21 Sur 33 Sudeste 0 -- -- 68
2020-10-20 06:00:00 20 15 Sur 31 Sudeste 0 -- -- 68
2020-10-20 05:00:00 20.1 15 Sudeste 35 Sur 0 -- -- 68
2020-10-20 04:00:00 20.5 23 Sur 40 Sur 0 -- -- 65
2020-10-20 03:00:00 20.2 17 Sur 28 Sudeste 0 -- -- 65
2020-10-20 02:00:00 20.3 15 Sur 28 Sudeste 0 -- -- 65
2020-10-20 01:00:00 19.9 18 Sur 32 Sur 0 -- -- 67
2020-10-20 00:00:00 19.8 18 Sur 26 Sur 0 -- -- 67
2020-10-19 23:00:00 19.5 13 Sur 23 Sur 0 -- -- 66
2020-10-19 22:00:00 20.1 15 Sur 31 Sur 0 -- -- 65
2020-10-19 21:00:00 20.4 22 Sur 44 Sur 0 -- -- 70
2020-10-19 20:00:00 20.4 27 Sudoeste 39 Sur 0 -- -- 74
2020-10-19 19:00:00 21.3 24 Sudoeste 38 Sudoeste 0 -- -- 69
2020-10-19 18:00:00 22.1 23 Sudoeste 31 Sudoeste 0 -- -- 67
2020-10-19 17:00:00 25.9 22 Sudoeste 36 Sudoeste 0 -- -- 51
2020-10-19 16:00:00 27.9 17 Sur 41 Sur 0 -- -- 36
2020-10-19 15:00:00 28.7 20 Sur 41 Sur 0 -- -- 35
2020-10-19 14:00:00 28.6 15 Sudeste 37 Sur 0 -- -- 35
2020-10-19 13:00:00 26.9 15 Sudeste 37 Sudeste 0 -- -- 37
2020-10-19 12:00:00 24.9 19 Sudeste 38 Sudeste 0 -- -- 40
2020-10-19 11:00:00 19 3 Sudeste 10 Este 0 -- -- 42
2020-10-19 10:00:00 12.4 4 Nordeste 15 Nordeste 0 -- -- 59
2020-10-19 09:00:00 10 12 Nordeste 17 Nordeste 0 -- -- 61
2020-10-19 08:00:00 9 8 Nordeste 15 Nordeste 0 -- -- 64
2020-10-19 07:00:00 10.2 10 Nordeste 16 Nordeste 0 -- -- 62
2020-10-19 06:00:00 10.5 8 Nordeste 13 Nordeste 0 -- -- 67
2020-10-19 05:00:00 11.9 7 Nordeste 15 Norte 0 -- -- 64
2020-10-19 04:00:00 11.8 8 Nordeste 14 Norte 0 -- -- 67
2020-10-19 03:00:00 11.5 8 Nordeste 17 Norte 0 -- -- 63
2020-10-19 02:00:00 11.2 10 Nordeste 15 Nordeste 0 -- -- 68
2020-10-19 01:00:00 12.3 8 Nordeste 12 Norte 0 -- -- 66
2020-10-19 00:00:00 12.8 7 Nordeste 10 Nordeste 0 -- -- 57
2020-10-18 23:00:00 14.2 2 Este 6 Sur 0 -- -- 54
2020-10-18 22:00:00 15.7 3 Oeste 12 Sur 0 -- -- 49
2020-10-18 21:00:00 16.3 5 Sur 9 Sudoeste 0 -- -- 52
2020-10-18 20:00:00 19.8 3 Oeste 12 Sudoeste 0 -- -- 57
2020-10-18 19:00:00 23.7 12 Sudoeste 18 Sudoeste 0 -- -- 47
2020-10-18 18:00:00 26 15 Sudoeste 23 Sudoeste 0 -- -- 37
2020-10-18 17:00:00 28.1 14 Sudoeste 25 Sudoeste 0 -- -- 33
2020-10-18 16:00:00 28.7 12 Sudeste 33 Sur 0 -- -- 31
2020-10-18 15:00:00 27.4 9 Sudeste 22 Este 0 -- -- 32
2020-10-18 14:00:00 25.4 5 Sudeste 17 Este 0 -- -- 36
2020-10-18 13:00:00 22.1 7 Nordeste 20 Nordeste 0 -- -- 41
2020-10-18 12:00:00 18.9 14 Nordeste 24 Nordeste 0 -- -- 52
2020-10-18 11:00:00 15.1 15 Nordeste 21 Nordeste 0 -- -- 67
2020-10-18 10:00:00 8.3 8 Nordeste 11 Nordeste 0 -- -- 97
2020-10-18 09:00:00 5.5 4 Nordeste 13 Nordeste 0 -- -- 93
2020-10-18 08:00:00 7.6 8 Norte 15 Nordeste 0 -- -- 95
2020-10-18 07:00:00 7.3 9 Nordeste 15 Norte 0 -- -- 96
2020-10-18 06:00:00 5.8 6 Nordeste 11 Norte 0 -- -- 95
2020-10-18 05:00:00 6.4 4 Nordeste 5 Nordeste 0 -- -- 93
2020-10-18 04:00:00 6.6 0 Calma 5 Sudeste 0 -- -- 91
2020-10-18 03:00:00 7.6 4 Sudeste 9 Sudeste 0 -- -- 90
2020-10-18 02:00:00 9.5 0 Calma 11 Noroeste 0 -- -- 84
2020-10-18 01:00:00 11.1 5 Noroeste 10 Noroeste 0 -- -- 90
2020-10-18 00:00:00 12 6 Norte 12 Noroeste 0 -- -- 89
2020-10-17 23:00:00 11.3 5 Nordeste 8 Nordeste 0 -- -- 92
2020-10-17 22:00:00 12.5 0 Calma 7 Oeste 0 -- -- 86
2020-10-17 21:00:00 14.9 5 Oeste 11 Oeste 0 -- -- 82
2020-10-17 20:00:00 17.2 8 Oeste 20 Sudoeste 0 -- -- 74
2020-10-17 19:00:00 20.1 15 Oeste 23 Sudoeste 0 -- -- 63
2020-10-17 18:00:00 21.4 17 Sudoeste 23 Sudoeste 0 -- -- 57
2020-10-17 17:00:00 22.4 18 Sudoeste 25 Sudoeste 0 -- -- 48
2020-10-17 16:00:00 23.3 18 Oeste 26 Oeste 0 -- -- 42
2020-10-17 15:00:00 23.3 18 Sudoeste 27 Sudoeste 0 -- -- 43
2020-10-17 14:00:00 23.3 16 Sudoeste 23 Sudoeste 0 -- -- 41
2020-10-17 13:00:00 21.7 8 Sur 18 Sudoeste 0 -- -- 46
2020-10-17 12:00:00 16.3 3 Oeste 8 Norte 0 -- -- 71
2020-10-17 11:00:00 10.3 3 Nordeste 6 Nordeste 0 -- -- 98
2020-10-17 10:00:00 5.8 3 Nordeste 4 Nordeste 0 -- -- 97
2020-10-17 09:00:00 3.2 3 Nordeste 9 Nordeste 0 -- -- 95
2020-10-17 08:00:00 3.8 8 Nordeste 11 Nordeste 0 -- -- 93
2020-10-17 07:00:00 5.5 3 Norte 11 Noroeste 0 -- -- 92
2020-10-17 06:00:00 5.2 8 Noroeste 10 Noroeste 0 -- -- 98
2020-10-17 05:00:00 5.4 2 Noroeste 11 Oeste 0 -- -- 95
2020-10-17 04:00:00 6.4 3 Sudoeste 6 Sur 0 -- -- 96
2020-10-17 03:00:00 5.4 2 Sur 3 Sur 0 -- -- 91
2020-10-17 02:00:00 7.5 0 Calma 5 Sudeste 0 -- -- 92
2020-10-17 01:00:00 9.1 2 Sudeste 6 Sudeste 0 -- -- 93
2020-10-17 00:00:00 9.2 0 Calma 6 Nordeste 0 -- -- 89
2020-10-16 23:00:00 11.6 3 Norte 14 Sudoeste 0 -- -- 85
2020-10-16 22:00:00 12.6 10 Oeste 12 Oeste 0 -- -- 88
2020-10-16 21:00:00 14.4 8 Oeste 15 Oeste 0 -- -- 83
2020-10-16 20:00:00 16.9 11 Oeste 21 Sudoeste 0 -- -- 78
2020-10-16 19:00:00 19.7 16 Oeste 23 Sudoeste 0 -- -- 66
2020-10-16 18:00:00 21.6 17 Oeste 23 Sudoeste 0 -- -- 56
2020-10-16 17:00:00 23.1 17 Sudoeste 25 Sudoeste 0 -- -- 52
2020-10-16 16:00:00 24.6 17 Sudoeste 26 Sudoeste 0 -- -- 41
2020-10-16 15:00:00 24.7 5 Sur 16 Sudoeste 0 -- -- 36
2020-10-16 14:00:00 23.1 7 Este 14 Este 0 -- -- 43
2020-10-16 13:00:00 21.5 5 Sudeste 15 Nordeste 0 -- -- 51
2020-10-16 12:00:00 18.5 10 Nordeste 17 Nordeste 0 -- -- 58
2020-10-16 11:00:00 15 12 Nordeste 19 Nordeste 0 -- -- 64
2020-10-16 10:00:00 8.6 6 Nordeste 13 Nordeste 0 -- -- 96
2020-10-16 09:00:00 6.2 9 Nordeste 14 Norte 0 -- -- 95
2020-10-16 08:00:00 7 9 Nordeste 15 Nordeste 0 -- -- 95
2020-10-16 07:00:00 7.2 4 Nordeste 12 Nordeste 0 -- -- 96
2020-10-16 06:00:00 6.5 4 Nordeste 10 Nordeste 0 -- -- 94
2020-10-16 05:00:00 6.8 5 Nordeste 8 Norte 0 -- -- 92
2020-10-16 04:00:00 7.4 5 Norte 15 Norte 0 -- -- 92
2020-10-16 03:00:00 10.1 10 Norte 15 Norte 0 -- -- 94
2020-10-16 02:00:00 8.9 2 Norte 6 Norte 0 -- -- 88
2020-10-16 01:00:00 11.5 0 Calma 10 Sudoeste 0 -- -- 85
2020-10-16 00:00:00 13.4 9 Sudoeste 15 Sudoeste 0 -- -- 85
2020-10-15 23:00:00 14.7 10 Sudoeste 17 Oeste 0 -- -- 83
2020-10-15 22:00:00 15 10 Sudoeste 15 Oeste 0 -- -- 84
2020-10-15 21:00:00 15.1 10 Sudoeste 17 Sudoeste 0 -- -- 73
2020-10-15 20:00:00 16.9 12 Sudoeste 21 Sudoeste 0 -- -- 64
2020-10-15 19:00:00 20.2 18 Sudoeste 26 Sudoeste 0 -- -- 45
2020-10-15 18:00:00 22.2 20 Sudoeste 28 Sudoeste 0 -- -- 34
2020-10-15 17:00:00 22.8 21 Oeste 28 Sudoeste 0 -- -- 34
2020-10-15 16:00:00 22.7 21 Oeste 30 Oeste 0 -- -- 36
2020-10-15 15:00:00 22.4 19 Sudoeste 27 Sudoeste 0 -- -- 37
2020-10-15 14:00:00 22.9 14 Sudoeste 22 Sudoeste 0 -- -- 34
2020-10-15 13:00:00 22 4 Oeste 12 Oeste 0 -- -- 34
2020-10-15 12:00:00 19.6 3 Este 10 Este 0 -- -- 40
2020-10-15 11:00:00 16.2 3 Nordeste 9 Noroeste 0 -- -- 50
2020-10-15 10:00:00 11.1 5 Noroeste 11 Norte 0 -- -- 74
2020-10-15 09:00:00 6.9 6 Noroeste 12 Noroeste 0 -- -- 87
2020-10-15 08:00:00 4.3 7 Oeste 9 Oeste 0 -- -- 89
2020-10-15 07:00:00 4.2 0 Calma 4 Sudoeste 0 -- -- 83
2020-10-15 06:00:00 5.9 0 Calma 5 Sudeste 0 -- -- 79
2020-10-15 05:00:00 7.2 2 Sudeste 8 Noroeste 0 -- -- 73
2020-10-15 04:00:00 9 5 Oeste 9 Oeste 0 -- -- 69
2020-10-15 03:00:00 10.8 6 Noroeste 12 Noroeste 0 -- -- 61
2020-10-15 02:00:00 11.6 6 Noroeste 14 Oeste 0 -- -- 56
2020-10-15 01:00:00 12.7 8 Oeste 15 Noroeste 0 -- -- 52
2020-10-15 00:00:00 12.9 7 Oeste 14 Oeste 0 -- -- 52
2020-10-14 23:00:00 12.9 8 Noroeste 13 Oeste 0 -- -- 53
2020-10-14 22:00:00 15.1 6 Oeste 17 Sudoeste 0 -- -- 57
2020-10-14 21:00:00 16.1 12 Sudoeste 19 Oeste 0 -- -- 80
2020-10-14 20:00:00 18.1 13 Oeste 33 Oeste 0 -- -- 58
2020-10-14 19:00:00 20.4 22 Oeste 35 Oeste 0 -- -- 53
2020-10-14 18:00:00 21.7 24 Oeste 34 Oeste 0 -- -- 52
2020-10-14 17:00:00 21.8 25 Oeste 41 Sudoeste 0 -- -- 50
2020-10-14 16:00:00 21.8 27 Oeste 39 Oeste 0 -- -- 47
2020-10-14 15:00:00 22.8 20 Oeste 31 Oeste 0 -- -- 43
2020-10-14 14:00:00 21.8 9 Noroeste 24 Norte 0 -- -- 43
2020-10-14 13:00:00 20.1 8 Norte 18 Noroeste 0 -- -- 47
2020-10-14 12:00:00 18 10 Noroeste 22 Noroeste 0 -- -- 57
2020-10-14 11:00:00 15.6 12 Noroeste 24 Noroeste 0 -- -- 66
2020-10-14 10:00:00 12.9 12 Noroeste 24 Noroeste 0 -- -- 77
2020-10-14 09:00:00 11 8 Oeste 18 Noroeste 0 -- -- 82
2020-10-14 08:00:00 11.3 10 Noroeste 19 Noroeste 0 -- -- 82
2020-10-14 07:00:00 12.1 10 Oeste 21 Oeste 0 -- -- 76
2020-10-14 06:00:00 12.7 10 Noroeste 21 Noroeste 0 -- -- 76
2020-10-14 05:00:00 14.5 9 Oeste 24 Oeste 0 -- -- 76
2020-10-14 04:00:00 16 11 Sudoeste 26 Noroeste 0 -- -- 80
2020-10-14 03:00:00 16.7 11 Noroeste 22 Noroeste 0 -- -- 79
2020-10-14 02:00:00 16.4 8 Oeste 14 Oeste 0 -- -- 76
2020-10-14 01:00:00 16.7 10 Oeste 18 Oeste 0 -- -- 85
2020-10-14 00:00:00 17.1 13 Oeste 18 Oeste 0 -- -- 80
2020-10-13 23:00:00 17.2 13 Oeste 22 Oeste 0 -- -- 77
2020-10-13 22:00:00 17.6 15 Oeste 22 Sudoeste 0 -- -- 72
2020-10-13 21:00:00 18 15 Oeste 21 Oeste 0 -- -- 70
2020-10-13 20:00:00 19.3 15 Oeste 25 Oeste 0 -- -- 55
2020-10-13 19:00:00 23.5 15 Oeste 23 Sudoeste 0 -- -- 39
2020-10-13 18:00:00 24.9 19 Oeste 27 Oeste 0 -- -- 30
2020-10-13 17:00:00 25.4 21 Oeste 28 Oeste 0 -- -- 29
2020-10-13 16:00:00 25.7 21 Oeste 26 Oeste 0 -- -- 28
2020-10-13 15:00:00 26.2 10 Oeste 21 Nordeste 0 -- -- 33
2020-10-13 14:00:00 25.5 8 Nordeste 24 Nordeste 0 -- -- 25
2020-10-13 13:00:00 23.4 15 Nordeste 23 Nordeste 0 -- -- 30
2020-10-13 12:00:00 21.1 10 Nordeste 20 Nordeste 0 -- -- 33
2020-10-13 11:00:00 17.9 12 Nordeste 21 Nordeste 0 -- -- 36
2020-10-13 10:00:00 -- -- -- -- -- -- -- -- --
2020-10-13 09:00:00 8.7 5 Nordeste 12 Norte 0 -- -- 62
2020-10-13 08:00:00 8 3 Norte 7 Norte 0 -- -- 64
2020-10-13 07:00:00 7.4 0 Calma 4 Norte 0 -- -- 60
2020-10-13 06:00:00 7.8 3 Norte 6 Norte 0 -- -- 59
2020-10-13 05:00:00 7.4 0 Calma 9 Sudeste 0 -- -- 59
2020-10-13 04:00:00 -- -- -- -- -- -- -- -- --
2020-10-13 03:00:00 13.3 4 Norte 12 Norte 0 -- -- 40
2020-10-13 02:00:00 14 5 Norte 12 Norte 0 -- -- 40
2020-10-13 01:00:00 -- -- -- -- -- -- -- -- --
2020-10-13 00:00:00 14.9 9 Norte 15 Norte 0 -- -- 47
2020-10-12 23:00:00 13.2 5 Noroeste 12 Noroeste 0 -- -- 42
2020-10-12 22:00:00 13.8 0 Calma 4 Nordeste 0 -- -- 36
2020-10-12 21:00:00 16 0 Calma 7 Nordeste 0 -- -- 33
2020-10-12 20:00:00 21.4 5 Nordeste 15 Nordeste 0 -- -- 24
2020-10-12 19:00:00 25.5 9 Nordeste 23 Nordeste 0 -- -- 19
2020-10-12 18:00:00 -- -- -- -- -- -- -- -- --
2020-10-12 17:00:00 26.3 17 Nordeste 37 Nordeste 0 -- -- 20
2020-10-12 16:00:00 26.1 20 Nordeste 37 Nordeste 0 -- -- 20
2020-10-12 15:00:00 25.2 21 Nordeste 40 Nordeste 0 -- -- 21
2020-10-12 14:00:00 23.9 26 Nordeste 47 Nordeste 0 -- -- 26
2020-10-12 13:00:00 22.8 27 Nordeste 51 Nordeste 0 -- -- 29
2020-10-12 12:00:00 21.2 26 Nordeste 48 Nordeste 0 -- -- 32
2020-10-12 11:00:00 19.6 30 Nordeste 44 Nordeste 0 -- -- 35
2020-10-12 10:00:00 17 25 Nordeste 35 Nordeste 0 -- -- 43
2020-10-12 09:00:00 11.7 10 Nordeste 15 Nordeste 0 -- -- 56
2020-10-12 08:00:00 12.3 12 Nordeste 17 Nordeste 0 -- -- 54
2020-10-12 07:00:00 12.7 8 Nordeste 17 Nordeste 0 -- -- 51
2020-10-12 06:00:00 13.5 12 Nordeste 20 Nordeste 0 -- -- 48
2020-10-12 05:00:00 13.9 12 Nordeste 19 Nordeste 0 -- -- 50
2020-10-12 04:00:00 -- -- -- -- -- -- -- -- --
2020-10-12 03:00:00 14 15 Nordeste 23 Nordeste 0 -- -- 57
2020-10-12 02:00:00 15.1 16 Nordeste 21 Nordeste 0 -- -- 64
2020-10-12 01:00:00 16.4 14 Nordeste 26 Nordeste 0 -- -- 81
2020-10-12 00:00:00 16.9 7 Norte 14 Norte 0 -- -- 92
2020-10-11 23:00:00 17 3 Noroeste 10 Noroeste 0 -- -- 89
2020-10-11 22:00:00 17.8 3 Noroeste 13 Oeste 0 -- -- 83
2020-10-11 21:00:00 -- -- -- -- -- -- -- -- --
2020-10-11 20:00:00 -- -- -- -- -- -- -- -- --
2020-10-11 19:00:00 24 15 Oeste 22 Sudoeste 0 -- -- 64
2020-10-11 18:00:00 25.8 17 Oeste 23 Oeste 0 -- -- 58
2020-10-11 17:00:00 26.7 16 Oeste 25 Oeste 0 -- -- 56
2020-10-11 16:00:00 27 19 Sudoeste 27 Sudoeste 0 -- -- 57
2020-10-11 15:00:00 26.9 12 Oeste 24 Oeste 0 -- -- 58
2020-10-11 14:00:00 26.2 13 Oeste 20 Oeste 0 -- -- 60
2020-10-11 13:00:00 24.3 6 Norte 13 Nordeste 0 -- -- 64
2020-10-11 12:00:00 22.6 2 Sur 8 Norte 0 -- -- 72
2020-10-11 11:00:00 18.5 3 Nordeste 8 Nordeste 0 -- -- 98
2020-10-11 10:00:00 15.3 2 Norte 5 Norte 0 -- -- 98
2020-10-11 09:00:00 13.5 0 Calma 9 Sudeste 0 -- -- 97
2020-10-11 08:00:00 14.6 4 Sur 10 Sur 0 -- -- 97
2020-10-11 07:00:00 13.5 0 Calma 3 Sur 0 -- -- 97
2020-10-11 06:00:00 13.5 0 Calma 4 Sudeste 0 -- -- 97
2020-10-11 05:00:00 13.6 2 Este 4 Sur 0 -- -- 96
2020-10-11 04:00:00 13.8 4 Sur 5 Sudeste 0 -- -- 96
2020-10-11 03:00:00 14.3 4 Este 6 Este 0 -- -- 95
2020-10-11 02:00:00 14.7 3 Sudeste 6 Este 0 -- -- 94
2020-10-11 01:00:00 17 4 Oeste 8 Oeste 0 -- -- 95
2020-10-11 00:00:00 17 6 Oeste 10 Oeste 0 -- -- 93
2020-10-10 23:00:00 17.9 9 Sudoeste 12 Sudoeste 0 -- -- 93
2020-10-10 22:00:00 17.9 8 Sudoeste 13 Oeste 0 -- -- 90
2020-10-10 21:00:00 19.2 10 Oeste 18 Oeste 0 -- -- 87
2020-10-10 20:00:00 20.9 14 Oeste 24 Oeste 0 -- -- 77
2020-10-10 19:00:00 23.8 20 Oeste 25 Oeste 0 -- -- 63
2020-10-10 18:00:00 25.2 18 Oeste 26 Oeste 0 -- -- 57
2020-10-10 17:00:00 25.8 20 Oeste 27 Oeste 0 -- -- 53
2020-10-10 16:00:00 27 18 Oeste 23 Oeste 0 -- -- 49
2020-10-10 15:00:00 27.5 15 Sudoeste 23 Oeste 0 -- -- 48
2020-10-10 14:00:00 27.3 13 Sudoeste 20 Sudoeste 0 -- -- 50
2020-10-10 13:00:00 26.5 7 Sur 17 Sur 0 -- -- 53
2020-10-10 12:00:00 23.2 3 Sudeste 10 Este 0 -- -- 64
2020-10-10 11:00:00 18.7 3 Nordeste 10 Nordeste 0 -- -- 82
2020-10-10 10:00:00 14.6 6 Nordeste 10 Nordeste 0 -- -- 97
2020-10-10 09:00:00 12.8 6 Nordeste 12 Nordeste 0 -- -- 97
2020-10-10 08:00:00 12.5 4 Norte 10 Nordeste 0 -- -- 97
2020-10-10 07:00:00 12.7 8 Nordeste 12 Nordeste 0 -- -- 97
2020-10-10 06:00:00 13.2 5 Nordeste 10 Nordeste 0 -- -- 96
2020-10-10 05:00:00 15 6 Sudoeste 10 Sur 0 -- -- 96
2020-10-10 04:00:00 13.9 6 Sudoeste 8 Sur 0 -- -- 94
2020-10-10 03:00:00 13 9 Sur 11 Sur 0 -- -- 92
2020-10-10 02:00:00 14.6 2 Sur 4 Sur 0 -- -- 89
2020-10-10 01:00:00 15.1 4 Sudoeste 9 Sur 0 -- -- 90
2020-10-10 00:00:00 15.3 5 Sur 9 Sur 0 -- -- 77
2020-10-09 23:00:00 17.3 3 Sudoeste 12 Oeste 0 -- -- 72
2020-10-09 22:00:00 19.2 8 Oeste 18 Oeste 0 -- -- 70
2020-10-09 21:00:00 20.2 12 Oeste 15 Oeste 0 -- -- 55
2020-10-09 20:00:00 23.5 9 Oeste 18 Oeste 0 -- -- 46
2020-10-09 19:00:00 27.5 12 Oeste 17 Oeste 0 -- -- 39
2020-10-09 18:00:00 28.9 11 Oeste 20 Oeste 0 -- -- 36
2020-10-09 17:00:00 27.5 15 Sudoeste 20 Sudoeste 0 -- -- 40
2020-10-09 16:00:00 27.7 15 Sudoeste 21 Sudoeste 0 -- -- 40
2020-10-09 15:00:00 28 13 Oeste 19 Oeste 0 -- -- 39
2020-10-09 14:00:00 28.9 4 Este 14 Este 0 -- -- 33
2020-10-09 13:00:00 25.6 4 Nordeste 12 Nordeste 0 -- -- 41
2020-10-09 12:00:00 21.9 6 Noroeste 9 Norte 0 -- -- 50
2020-10-09 11:00:00 17.3 4 Norte 12 Nordeste 0 -- -- 68
2020-10-09 10:00:00 14.5 4 Nordeste 7 Nordeste 0 -- -- 76
2020-10-09 09:00:00 12.2 0 Calma 12 Nordeste 0 -- -- 76
2020-10-09 08:00:00 13.4 9 Nordeste 14 Nordeste 0 -- -- 71
2020-10-09 07:00:00 13 4 Sur 6 Sudoeste 0 -- -- 73
2020-10-09 06:00:00 15.1 5 Oeste 8 Oeste 0 -- -- 67
2020-10-09 05:00:00 12.7 2 Sudoeste 5 Oeste 0 -- -- 73
2020-10-09 04:00:00 14.3 4 Oeste 5 Oeste 0 -- -- 68
2020-10-09 03:00:00 15.1 3 Oeste 8 Noroeste 0 -- -- 65
2020-10-09 02:00:00 15.8 4 Oeste 14 Noroeste 0 -- -- 62
2020-10-09 01:00:00 17.2 6 Noroeste 12 Noroeste 0 -- -- 61
2020-10-09 00:00:00 16.7 6 Noroeste 9 Noroeste 0 -- -- 60
2020-10-08 23:00:00 17.2 4 Noroeste 6 Oeste 0 -- -- 58
2020-10-08 22:00:00 18.8 5 Oeste 10 Oeste 0 -- -- 54
2020-10-08 21:00:00 21.1 5 Oeste 14 Oeste 0 -- -- 50
2020-10-08 20:00:00 23.9 10 Oeste 21 Sudoeste 0 -- -- 45
2020-10-08 19:00:00 26.7 15 Sudoeste 20 Sudoeste 0 -- -- 42
2020-10-08 18:00:00 29.3 17 Oeste 25 Oeste 0 -- -- 35
2020-10-08 17:00:00 30.7 20 Sudoeste 28 Oeste 0 -- -- 33
2020-10-08 16:00:00 31.7 19 Sudoeste 26 Sudoeste 0 -- -- 32
2020-10-08 15:00:00 32.5 8 Sudeste 17 Este 0 -- -- 29
2020-10-08 14:00:00 31.5 8 Este 19 Sudeste 0 -- -- 30
2020-10-08 13:00:00 28.5 8 Nordeste 16 Nordeste 0 -- -- 35
2020-10-08 12:00:00 25.7 8 Nordeste 20 Este 0 -- -- 41
2020-10-08 11:00:00 22.2 9 Nordeste 16 Nordeste 0 -- -- 49
2020-10-08 10:00:00 18.5 9 Nordeste 13 Nordeste 0 -- -- 62
2020-10-08 09:00:00 14.9 3 Norte 10 Nordeste 0 -- -- 74
2020-10-08 08:00:00 13.9 3 Norte 12 Norte 0 -- -- 82
2020-10-08 07:00:00 14.2 0 Calma 11 Norte 0 -- -- 83
2020-10-08 06:00:00 14.4 4 Norte 9 Norte 0 -- -- 85
2020-10-08 05:00:00 14.1 3 Norte 11 Nordeste 0 -- -- 86
2020-10-08 04:00:00 14.1 5 Norte 10 Nordeste 0 -- -- 90
2020-10-08 03:00:00 16 0 Calma 9 Sudoeste 0 -- -- 91
2020-10-08 02:00:00 16.1 8 Sudoeste 9 Sudoeste 0 -- -- 86
2020-10-08 01:00:00 16.7 5 Sudoeste 10 Sudoeste 0 -- -- 87
2020-10-08 00:00:00 17.1 5 Sudoeste 9 Sudoeste 0 -- -- 85
2020-10-07 23:00:00 17.9 8 Oeste 10 Sudoeste 0 -- -- 80
2020-10-07 22:00:00 19.6 8 Oeste 10 Oeste 0 -- -- 73
2020-10-07 21:00:00 21.8 8 Sudoeste 17 Sudoeste 0 -- -- 61
2020-10-07 20:00:00 26.4 6 Oeste 15 Oeste 0 -- -- 44
2020-10-07 19:00:00 29.8 11 Oeste 19 Oeste 0 -- -- 37
2020-10-07 18:00:00 30.1 14 Sudoeste 20 Sudoeste 0 -- -- 39
2020-10-07 17:00:00 32.9 14 Sudoeste 20 Sudoeste 0 -- -- 33
2020-10-07 16:00:00 33.5 4 Oeste 17 Nordeste 0 -- -- 32
2020-10-07 15:00:00 31.8 11 Nordeste 27 Nordeste 0 -- -- 32
2020-10-07 14:00:00 30.4 12 Este 26 Nordeste 0 -- -- 36
2020-10-07 13:00:00 28.3 16 Nordeste 33 Nordeste 0 -- -- 42
2020-10-07 12:00:00 26 15 Nordeste 30 Nordeste 0 -- -- 46
2020-10-07 11:00:00 22.2 13 Nordeste 23 Nordeste 0 -- -- 56
2020-10-07 10:00:00 16 5 Nordeste 9 Nordeste 0 -- -- 81
2020-10-07 09:00:00 11.6 3 Norte 6 Nordeste 0 -- -- 92
2020-10-07 08:00:00 12 3 Norte 7 Nordeste 0 -- -- 85
2020-10-07 07:00:00 13.5 5 Nordeste 12 Nordeste 0 -- -- 86
2020-10-07 06:00:00 12.4 3 Norte 4 Norte 0 -- -- 88
2020-10-07 05:00:00 12.6 0 Calma 8 Nordeste 0 -- -- 84
2020-10-07 04:00:00 13.6 4 Nordeste 9 Nordeste 0 -- -- 81
2020-10-07 03:00:00 15.4 4 Este 14 Noroeste 0 -- -- 76
2020-10-07 02:00:00 15.8 8 Noroeste 11 Noroeste 0 -- -- 81
2020-10-07 01:00:00 16.7 9 Noroeste 13 Noroeste 0 -- -- 74
2020-10-07 00:00:00 16.8 3 Noroeste 10 Noroeste 0 -- -- 71
2020-10-06 23:00:00 17.4 4 Noroeste 13 Oeste 0 -- -- 72
2020-10-06 22:00:00 19.2 9 Noroeste 17 Oeste 0 -- -- 67
2020-10-06 21:00:00 20.4 12 Oeste 18 Oeste 0 -- -- 57
2020-10-06 20:00:00 22.7 10 Oeste 22 Oeste 0 -- -- 50
2020-10-06 19:00:00 25.2 14 Oeste 23 Sudoeste 0 -- -- 46
2020-10-06 18:00:00 27.2 18 Sudoeste 23 Sudoeste 0 -- -- 43
2020-10-06 17:00:00 27.8 17 Oeste 24 Sudoeste 0 -- -- 41
2020-10-06 16:00:00 28.6 12 Nordeste 26 Nordeste 0 -- -- 39
2020-10-06 15:00:00 27.5 10 Nordeste 28 Nordeste 0 -- -- 41
2020-10-06 14:00:00 26.4 14 Nordeste 30 Nordeste 0 -- -- 42
2020-10-06 13:00:00 24.7 16 Nordeste 28 Nordeste 0 -- -- 46
2020-10-06 12:00:00 22.7 17 Nordeste 25 Nordeste 0 -- -- 52
2020-10-06 11:00:00 19.8 14 Nordeste 21 Nordeste 0 -- -- 59
2020-10-06 10:00:00 15.2 7 Nordeste 12 Nordeste 0 -- -- 74
2020-10-06 09:00:00 10.9 3 Norte 7 Norte 0 -- -- 88
2020-10-06 08:00:00 11.2 2 Norte 6 Nordeste 0 -- -- 84
2020-10-06 07:00:00 9.8 3 Norte 5 Norte 0 -- -- 88
2020-10-06 06:00:00 10.4 2 Nordeste 9 Este 0 -- -- 80
2020-10-06 05:00:00 12 4 Nordeste 13 Noroeste 0 -- -- 80
2020-10-06 04:00:00 14.7 6 Norte 17 Norte 0 -- -- 72
2020-10-06 03:00:00 14.5 5 Norte 13 Norte 0 -- -- 74
2020-10-06 02:00:00 14.6 4 Noroeste 13 Norte 0 -- -- 70
2020-10-06 01:00:00 15.8 6 Noroeste 15 Noroeste 0 -- -- 62
2020-10-06 00:00:00 14.9 8 Noroeste 13 Norte 0 -- -- 64
2020-10-05 23:00:00 14.5 4 Oeste 9 Noroeste 0 -- -- 82
2020-10-05 22:00:00 16 4 Oeste 8 Sudoeste 0 -- -- 86
2020-10-05 21:00:00 17.3 6 Oeste 18 Oeste 0 -- -- 81
2020-10-05 20:00:00 19.1 15 Oeste 27 Sudoeste 0 -- -- 75
2020-10-05 19:00:00 21.8 20 Sudoeste 27 Sudoeste 0 -- -- 63
2020-10-05 18:00:00 24 23 Sudoeste 31 Sudoeste 0 -- -- 54
2020-10-05 17:00:00 24 19 Oeste 32 Sudoeste 0 -- -- 47
2020-10-05 16:00:00 25.5 20 Sudoeste 27 Sudoeste 0 -- -- 43
2020-10-05 15:00:00 23.8 9 Noroeste 24 Sur 0 -- -- 39
2020-10-05 14:00:00 22.9 7 Nordeste 27 Noroeste 0 -- -- 44
2020-10-05 13:00:00 21.6 10 Norte 22 Noroeste 0 -- -- 46
2020-10-05 12:00:00 19.9 7 Norte 21 Noroeste 0 -- -- 52
2020-10-05 11:00:00 17.6 5 Norte 17 Noroeste 0 -- -- 63
2020-10-05 10:00:00 13.9 6 Norte 14 Noroeste 0 -- -- 80
2020-10-05 09:00:00 10.5 3 Norte 7 Norte 0 -- -- 91
2020-10-05 08:00:00 10.4 2 Oeste 9 Noroeste 0 -- -- 86
2020-10-05 07:00:00 11.2 5 Noroeste 12 Noroeste 0 -- -- 82
2020-10-05 06:00:00 12.2 5 Noroeste 12 Norte 0 -- -- 77
2020-10-05 05:00:00 13.4 6 Norte 15 Noroeste 0 -- -- 73
2020-10-05 04:00:00 13.9 7 Noroeste 18 Noroeste 0 -- -- 70
2020-10-05 03:00:00 14.3 8 Noroeste 19 Noroeste 0 -- -- 70
2020-10-05 02:00:00 14.3 8 Noroeste 19 Noroeste 0 -- -- 73
2020-10-05 01:00:00 14.7 6 Oeste 15 Oeste 0 -- -- 77
2020-10-05 00:00:00 14.2 6 Oeste 10 Oeste 0 -- -- 84
2020-10-04 23:00:00 15.6 7 Oeste 11 Oeste 0 -- -- 89
2020-10-04 22:00:00 16.8 6 Oeste 15 Oeste 0 -- -- 88
2020-10-04 21:00:00 17.7 10 Oeste 26 Oeste 0 -- -- 85
2020-10-04 20:00:00 18.9 19 Oeste 30 Oeste 0 -- -- 83
2020-10-04 19:00:00 20 22 Oeste 35 Oeste 0 -- -- 75
2020-10-04 18:00:00 21.9 26 Oeste 39 Sudoeste 0 -- -- 63
2020-10-04 17:00:00 22 27 Oeste 39 Oeste 0 -- -- 59
2020-10-04 16:00:00 21.9 24 Sudoeste 35 Oeste 0 -- -- 57
2020-10-04 15:00:00 22.1 23 Oeste 35 Sudoeste 0 -- -- 52
2020-10-04 14:00:00 21.6 22 Sudoeste 32 Oeste 0 -- -- 53
2020-10-04 13:00:00 21 19 Oeste 26 Sudoeste 0 -- -- 56
2020-10-04 12:00:00 20.5 9 Sudoeste 21 Sudoeste 0 -- -- 53
2020-10-04 11:00:00 16.3 0 Calma 5 Nordeste 0 -- -- 66
2020-10-04 10:00:00 10.6 0 Calma 3 Nordeste 0 -- -- 95
2020-10-04 09:00:00 8.2 0 Calma 8 Sudeste 0 -- -- 90
2020-10-04 08:00:00 10.4 4 Nordeste 15 Norte 0 -- -- 86
2020-10-04 07:00:00 10.6 6 Noroeste 11 Noroeste 0 -- -- 88
2020-10-04 06:00:00 11.4 4 Noroeste 14 Noroeste 0 -- -- 87
2020-10-04 05:00:00 11.2 4 Noroeste 10 Noroeste 0 -- -- 86
2020-10-04 04:00:00 11.7 6 Noroeste 13 Noroeste 0 -- -- 84
2020-10-04 03:00:00 12.2 6 Noroeste 13 Noroeste 0 -- -- 82
2020-10-04 02:00:00 13.2 6 Noroeste 15 Noroeste 0 -- -- 81
2020-10-04 01:00:00 14.4 8 Noroeste 19 Oeste 0 -- -- 84
2020-10-04 00:00:00 14.3 8 Oeste 11 Oeste 0 -- -- 90
2020-10-03 23:00:00 15.5 10 Oeste 14 Oeste 0 -- -- 85
2020-10-03 22:00:00 16.4 10 Oeste 20 Oeste 0 -- -- 78
2020-10-03 21:00:00 17.1 16 Oeste 26 Oeste 0 -- -- 73
2020-10-03 20:00:00 18.1 19 Oeste 35 Oeste 0 -- -- 66
2020-10-03 19:00:00 20 26 Oeste 37 Oeste 0 -- -- 58
2020-10-03 18:00:00 21.5 24 Oeste 39 Sudoeste 0 -- -- 48
2020-10-03 17:00:00 22.4 25 Oeste 35 Oeste 0 -- -- 40
2020-10-03 16:00:00 22.5 24 Sudoeste 34 Sudoeste 0 -- -- 43
2020-10-03 15:00:00 22.7 25 Sudoeste 33 Sudoeste 0 -- -- 39
2020-10-03 14:00:00 21.7 8 Norte 31 Noroeste 0 -- -- 38
2020-10-03 13:00:00 20.5 11 Noroeste 27 Noroeste 0 -- -- 41
2020-10-03 12:00:00 18.9 11 Noroeste 26 Noroeste 0 -- -- 50
2020-10-03 11:00:00 16.3 13 Noroeste 27 Noroeste 0 -- -- 63
2020-10-03 10:00:00 12.7 10 Noroeste 19 Noroeste 0 -- -- 81
2020-10-03 09:00:00 6.9 2 Sudoeste 7 Oeste 0 -- -- 89
2020-10-03 08:00:00 7.4 5 Oeste 8 Oeste 0 -- -- 88
2020-10-03 07:00:00 8.7 3 Oeste 9 Oeste 0 -- -- 82
2020-10-03 06:00:00 10.5 6 Oeste 19 Oeste 0 -- -- 79
2020-10-03 05:00:00 11.5 8 Oeste 17 Noroeste 0 -- -- 75
2020-10-03 04:00:00 10.6 4 Sudoeste 13 Oeste 0 -- -- 74
2020-10-03 03:00:00 12.8 8 Oeste 22 Noroeste 0 -- -- 66
2020-10-03 02:00:00 13.3 10 Oeste 20 Noroeste 0 -- -- 63
2020-10-03 01:00:00 14.2 11 Noroeste 24 Oeste 0 -- -- 60
2020-10-03 00:00:00 14.5 12 Oeste 20 Oeste 0 -- -- 60
2020-10-02 23:00:00 15 7 Oeste 12 Noroeste 0 -- -- 64
2020-10-02 22:00:00 17.4 6 Noroeste 19 Noroeste 0 -- -- 57
2020-10-02 21:00:00 19.2 13 Noroeste 26 Oeste 0 -- -- 54
2020-10-02 20:00:00 20.7 14 Noroeste 37 Oeste 0 -- -- 57
2020-10-02 19:00:00 21.7 13 Noroeste 44 Oeste 0 -- -- 60
2020-10-02 18:00:00 22.9 32 Oeste 48 Oeste 0 -- -- 63
2020-10-02 17:00:00 20.8 32 Oeste 62 Oeste 0 -- -- 83
2020-10-02 16:00:00 22.5 37 Oeste 65 Oeste 0 -- -- 76
2020-10-02 15:00:00 23.9 42 Sudoeste 68 Oeste 0 -- -- 72
2020-10-02 14:00:00 21.7 37 Oeste 59 Oeste 0 -- -- 83
2020-10-02 13:00:00 23.3 39 Sudoeste 55 Sudoeste 0 -- -- 71
2020-10-02 12:00:00 21.5 39 Sudoeste 54 Sudoeste 0 -- -- 76
2020-10-02 11:00:00 20.8 30 Sudoeste 43 Sudoeste 0 -- -- 77
2020-10-02 10:00:00 19.5 24 Sudoeste 35 Sudoeste 0 -- -- 80
2020-10-02 09:00:00 18.6 23 Sudoeste 31 Sudoeste 0 -- -- 79
2020-10-02 08:00:00 17.4 14 Sudoeste 20 Sudoeste 0 -- -- 81
2020-10-02 07:00:00 16.4 11 Oeste 16 Oeste 0 -- -- 84
2020-10-02 06:00:00 16.5 10 Oeste 23 Oeste 0 -- -- 82
2020-10-02 05:00:00 16.5 13 Oeste 26 Oeste 0 -- -- 80
2020-10-02 04:00:00 16.2 12 Noroeste 23 Oeste 0 -- -- 79
2020-10-02 03:00:00 16.4 12 Oeste 19 Oeste 0 -- -- 78
2020-10-02 02:00:00 16.6 11 Oeste 19 Oeste 0 -- -- 75
2020-10-02 01:00:00 16.7 11 Oeste 15 Oeste 0 -- -- 75
2020-10-02 00:00:00 17.3 9 Oeste 16 Oeste 0 -- -- 76
2020-10-01 23:00:00 18.9 8 Oeste 18 Noroeste 0 -- -- 80
2020-10-01 22:00:00 19.6 10 Oeste 20 Sudoeste 0 -- -- 87
2020-10-01 21:00:00 20.5 14 Oeste 26 Sudoeste 0 -- -- 84
2020-10-01 20:00:00 21.2 17 Oeste 37 Sudoeste 0 -- -- 80
2020-10-01 19:00:00 23 27 Oeste 42 Oeste 0 -- -- 70
2020-10-01 18:00:00 22.8 33 Oeste 45 Oeste 0 -- -- 68
2020-10-01 17:00:00 24.9 29 Oeste 39 Sudoeste 0 -- -- 58
2020-10-01 16:00:00 26.5 28 Oeste 40 Oeste 0 -- -- 52
2020-10-01 15:00:00 28.2 14 Oeste 35 Oeste 0 -- -- 41
2020-10-01 14:00:00 26 6 Oeste 20 Oeste 0 -- -- 39
2020-10-01 13:00:00 23.8 9 Noroeste 18 Oeste 0 -- -- 46
2020-10-01 12:00:00 20.5 7 Noroeste 17 Noroeste 0 -- -- 58
2020-10-01 11:00:00 17.5 12 Noroeste 23 Noroeste 0 -- -- 72
2020-10-01 10:00:00 14.2 8 Noroeste 16 Oeste 0 -- -- 90
2020-10-01 09:00:00 12.5 12 Oeste 19 Oeste 0 -- -- 93
2020-10-01 08:00:00 12.4 10 Oeste 14 Oeste 0 -- -- 95
2020-10-01 07:00:00 12.6 7 Oeste 12 Oeste 0 -- -- 93
2020-10-01 06:00:00 14.4 7 Oeste 16 Oeste 0 -- -- 93
2020-10-01 05:00:00 14.6 7 Oeste 13 Noroeste 0 -- -- 95
2020-10-01 04:00:00 15.1 6 Oeste 11 Oeste 0 -- -- 96
2020-10-01 03:00:00 16.1 6 Oeste 10 Sudoeste 0 -- -- 96
2020-10-01 02:00:00 14.7 5 Oeste 6 Oeste 0 -- -- 96
2020-10-01 01:00:00 15.2 0 Calma 7 Sur 0 -- -- 93
2020-10-01 00:00:00 17.1 5 Sur 7 Sudoeste 0 -- -- 91